createdAt,value
2019-03-16T00:00:34.491Z,11.35
2019-03-16T00:03:01.914Z,11.34
2019-03-16T00:05:29.415Z,11.36
2019-03-16T00:07:56.894Z,11.39
2019-03-16T00:10:24.300Z,11.43
2019-03-16T00:12:51.807Z,11.45
2019-03-16T00:15:19.211Z,11.50
2019-03-16T00:17:46.684Z,11.49
2019-03-16T00:20:14.153Z,11.46
2019-03-16T00:22:41.557Z,11.42
2019-03-16T00:25:09.049Z,11.44
2019-03-16T00:27:36.509Z,11.39
2019-03-16T00:30:04.676Z,11.40
2019-03-16T00:32:32.095Z,11.40
2019-03-16T00:34:59.503Z,11.39
2019-03-16T00:37:26.888Z,11.32
2019-03-16T00:39:53.906Z,11.28
2019-03-16T00:42:21.351Z,11.31
2019-03-16T00:44:48.766Z,11.29
2019-03-16T00:47:16.572Z,11.30
2019-03-16T00:49:43.981Z,11.27
2019-03-16T00:52:11.371Z,11.25
2019-03-16T00:54:38.839Z,11.22
2019-03-16T00:57:06.263Z,11.15
2019-03-16T00:59:34.692Z,11.15
2019-03-16T01:02:02.204Z,11.21
2019-03-16T01:04:29.640Z,11.29
2019-03-16T01:06:57.153Z,11.34
2019-03-16T01:09:24.568Z,11.33
2019-03-16T01:11:52.064Z,11.32
2019-03-16T01:14:19.456Z,11.35
2019-03-16T01:16:46.948Z,11.38
2019-03-16T01:19:14.344Z,11.39
2019-03-16T01:21:42.351Z,11.40
2019-03-16T01:24:10.078Z,11.42
2019-03-16T01:26:37.530Z,11.45
2019-03-16T01:29:04.982Z,11.46
2019-03-16T01:31:32.464Z,11.47
2019-03-16T01:33:59.850Z,11.48
2019-03-16T01:36:27.453Z,11.48
2019-03-16T01:38:54.392Z,11.43
2019-03-16T01:41:21.855Z,11.42
2019-03-16T01:43:49.250Z,11.42
2019-03-16T01:46:16.674Z,11.46
2019-03-16T01:48:44.128Z,11.53
2019-03-16T01:51:11.610Z,11.61
2019-03-16T01:53:40.068Z,11.62
2019-03-16T01:56:07.811Z,11.61
2019-03-16T01:58:35.202Z,11.58
2019-03-16T02:01:02.662Z,11.54
2019-03-16T02:03:30.082Z,11.54
2019-03-16T02:05:57.966Z,11.53
2019-03-16T02:08:25.557Z,11.50
2019-03-16T02:10:53.175Z,11.46
2019-03-16T02:13:20.560Z,11.48
2019-03-16T02:15:48.411Z,11.54
2019-03-16T02:18:15.816Z,11.51
2019-03-16T02:20:43.539Z,11.47
2019-03-16T02:23:10.930Z,11.39
2019-03-16T02:25:38.376Z,11.31
2019-03-16T02:28:05.900Z,11.22
2019-03-16T02:30:32.899Z,11.17
2019-03-16T02:33:12.868Z,11.15
2019-03-16T02:35:27.706Z,11.06
2019-03-16T02:37:55.218Z,11.03
2019-03-16T02:40:22.641Z,11.01
2019-03-16T02:42:50.037Z,10.96
2019-03-16T02:45:17.439Z,10.93
2019-03-16T02:47:44.848Z,10.89
2019-03-16T02:50:12.309Z,10.86
2019-03-16T02:52:39.729Z,10.86
2019-03-16T02:55:07.134Z,10.77
2019-03-16T02:57:34.611Z,10.70
2019-03-16T03:00:02.061Z,10.69
2019-03-16T03:02:29.003Z,10.76
2019-03-16T03:04:56.447Z,10.84
2019-03-16T03:07:23.863Z,10.84
2019-03-16T03:09:51.272Z,10.87
2019-03-16T03:12:18.740Z,10.91
2019-03-16T03:14:46.136Z,10.96
2019-03-16T03:17:13.536Z,11.00
2019-03-16T03:19:40.945Z,11.01
2019-03-16T03:22:08.401Z,11.04
2019-03-16T03:24:36.005Z,11.08
2019-03-16T03:27:03.422Z,11.16
2019-03-16T03:29:30.903Z,11.16
2019-03-16T03:31:58.321Z,11.12
2019-03-16T03:34:25.820Z,11.14
2019-03-16T03:36:53.259Z,11.22
2019-03-16T03:39:20.754Z,11.28
2019-03-16T03:41:48.901Z,11.25
2019-03-16T03:44:16.397Z,11.15
2019-03-16T03:46:43.816Z,11.03
2019-03-16T03:49:11.211Z,10.99
2019-03-16T03:51:38.608Z,11.04
2019-03-16T03:54:06.034Z,11.09
2019-03-16T03:56:33.454Z,11.12
2019-03-16T03:59:00.877Z,11.14
2019-03-16T04:01:28.344Z,11.12
2019-03-16T04:04:13.630Z,11.08
2019-03-16T04:06:23.167Z,11.10
2019-03-16T04:08:50.791Z,11.10
2019-03-16T04:11:18.267Z,11.09
2019-03-16T04:13:45.734Z,11.06
2019-03-16T04:16:13.156Z,11.05
2019-03-16T04:18:40.664Z,11.06
2019-03-16T04:21:08.047Z,11.14
2019-03-16T04:23:35.906Z,11.11
2019-03-16T04:26:03.310Z,11.16
2019-03-16T04:28:30.785Z,11.23
2019-03-16T04:30:58.291Z,11.27
2019-03-16T04:33:25.599Z,11.27
2019-03-16T04:35:53.023Z,11.24
2019-03-16T04:38:20.452Z,11.21
2019-03-16T04:40:47.874Z,11.17
2019-03-16T04:43:15.404Z,11.17
2019-03-16T04:45:42.811Z,11.18
2019-03-16T04:48:10.238Z,11.20
2019-03-16T04:50:37.639Z,11.16
2019-03-16T04:53:05.042Z,11.19
2019-03-16T04:55:32.441Z,11.25
2019-03-16T04:57:59.859Z,11.32
2019-03-16T05:00:27.508Z,11.35
2019-03-16T05:02:54.980Z,11.39
2019-03-16T05:05:22.402Z,11.41
2019-03-16T05:07:49.839Z,11.47
2019-03-16T05:10:17.239Z,11.48
2019-03-16T05:12:44.738Z,11.45
2019-03-16T05:15:12.172Z,11.35
2019-03-16T05:17:39.647Z,11.21
2019-03-16T05:20:09.754Z,11.14
2019-03-16T05:22:37.220Z,11.09
2019-03-16T05:25:04.610Z,11.02
2019-03-16T05:27:32.006Z,11.02
2019-03-16T05:29:59.410Z,10.97
2019-03-16T05:32:26.822Z,10.89
2019-03-16T05:34:56.723Z,10.90
2019-03-16T05:37:21.770Z,10.93
2019-03-16T05:39:49.264Z,10.93
2019-03-16T05:42:16.709Z,10.87
2019-03-16T05:44:44.137Z,10.78
2019-03-16T05:47:11.591Z,10.69
2019-03-16T05:49:39.003Z,10.63
2019-03-16T05:52:06.564Z,10.61
2019-03-16T05:54:33.973Z,10.61
2019-03-16T05:57:01.425Z,10.61
2019-03-16T05:59:28.839Z,10.60
2019-03-16T06:01:56.244Z,10.62
2019-03-16T06:04:23.651Z,10.65
2019-03-16T06:06:51.053Z,10.67
2019-03-16T06:09:18.601Z,10.67
2019-03-16T06:11:45.987Z,10.69
2019-03-16T06:14:13.398Z,10.73
2019-03-16T06:16:40.835Z,10.77
2019-03-16T06:19:08.516Z,10.84
2019-03-16T06:21:36.848Z,10.93
2019-03-16T06:24:04.852Z,11.01
2019-03-16T06:26:32.260Z,11.10
2019-03-16T06:28:59.667Z,11.11
2019-03-16T06:31:28.135Z,11.02
2019-03-16T06:33:55.618Z,11.13
2019-03-16T06:36:23.469Z,11.19
2019-03-16T06:38:50.816Z,11.06
2019-03-16T06:41:18.203Z,10.97
2019-03-16T06:43:45.623Z,11.07
2019-03-16T06:46:13.040Z,11.16
2019-03-16T06:48:40.481Z,11.12
2019-03-16T06:51:07.953Z,11.18
2019-03-16T06:53:35.369Z,11.29
2019-03-16T06:56:02.815Z,11.45
2019-03-16T06:58:30.250Z,11.56
2019-03-16T07:00:57.761Z,11.66
2019-03-16T07:03:25.218Z,11.74
2019-03-16T07:05:52.608Z,11.77
2019-03-16T07:08:20.101Z,11.71
2019-03-16T07:10:47.492Z,11.89
2019-03-16T07:13:14.954Z,12.09
2019-03-16T07:15:42.521Z,12.13
2019-03-16T07:18:09.935Z,12.09
2019-03-16T07:20:37.353Z,12.18
2019-03-16T07:23:04.848Z,12.38
2019-03-16T07:25:32.352Z,12.41
2019-03-16T07:27:59.907Z,12.34
2019-03-16T07:30:27.596Z,12.36
2019-03-16T07:32:55.067Z,12.43
2019-03-16T07:35:22.468Z,12.52
2019-03-16T07:37:49.850Z,12.66
2019-03-16T07:40:17.283Z,12.82
2019-03-16T07:42:45.181Z,12.84
2019-03-16T07:45:12.585Z,12.95
2019-03-16T07:47:40.088Z,13.04
2019-03-16T07:50:07.644Z,13.09
2019-03-16T07:52:35.010Z,13.40
2019-03-16T07:55:02.527Z,13.75
2019-03-16T07:57:39.476Z,14.10
2019-03-16T07:59:58.217Z,14.42
2019-03-16T08:02:26.156Z,14.57
2019-03-16T08:04:53.951Z,14.85
2019-03-16T08:07:21.467Z,15.11
2019-03-16T08:09:48.951Z,15.31
2019-03-16T08:12:16.372Z,15.37
2019-03-16T08:14:43.785Z,15.36
2019-03-16T08:17:11.201Z,15.42
2019-03-16T08:19:38.871Z,15.53
2019-03-16T08:22:06.276Z,15.58
2019-03-16T08:24:33.873Z,15.44
2019-03-16T08:27:01.445Z,15.48
2019-03-16T08:29:29.783Z,15.48
2019-03-16T08:31:57.212Z,15.47
2019-03-16T08:34:24.635Z,15.48
2019-03-16T08:36:52.142Z,15.44
2019-03-16T08:39:19.201Z,15.36
2019-03-16T08:41:46.194Z,15.38
2019-03-16T08:44:13.631Z,15.36
2019-03-16T08:46:41.105Z,15.29
2019-03-16T08:49:08.499Z,15.18
2019-03-16T08:51:37.546Z,15.01
2019-03-16T08:54:04.951Z,15.15
2019-03-16T08:56:31.990Z,15.28
2019-03-16T08:58:59.404Z,15.28
2019-03-16T09:01:27.194Z,15.31
2019-03-16T09:03:54.168Z,15.42
2019-03-16T09:06:21.821Z,15.50
2019-03-16T09:08:48.969Z,15.63
2019-03-16T09:11:15.915Z,15.72
2019-03-16T09:13:42.928Z,15.86
2019-03-16T09:16:10.076Z,15.97
2019-03-16T09:18:37.022Z,16.08
2019-03-16T09:21:04.476Z,16.23
2019-03-16T09:23:31.944Z,16.08
2019-03-16T09:25:59.437Z,15.88
2019-03-16T09:28:26.860Z,15.81
2019-03-16T09:30:56.426Z,15.98
2019-03-16T09:33:22.014Z,15.89
2019-03-16T09:35:49.433Z,15.77
2019-03-16T09:38:17.962Z,15.91
2019-03-16T09:40:45.446Z,15.84
2019-03-16T09:43:13.471Z,15.70
2019-03-16T09:45:40.877Z,15.74
2019-03-16T09:48:08.280Z,16.01
2019-03-16T09:50:35.732Z,16.18
2019-03-16T09:53:03.268Z,16.28
2019-03-16T09:55:30.693Z,16.37
2019-03-16T09:57:58.160Z,16.44
2019-03-16T10:00:25.557Z,16.64
2019-03-16T10:02:52.994Z,16.58
2019-03-16T10:05:20.470Z,16.63
2019-03-16T10:07:47.881Z,16.65
2019-03-16T10:10:15.404Z,16.41
2019-03-16T10:12:42.929Z,16.25
2019-03-16T10:15:10.384Z,16.29
2019-03-16T10:17:37.810Z,16.51
2019-03-16T10:20:06.127Z,16.67
2019-03-16T10:22:33.530Z,16.79
2019-03-16T10:25:01.496Z,16.80
2019-03-16T10:27:28.906Z,17.11
2019-03-16T10:29:56.354Z,17.04
2019-03-16T10:32:23.820Z,17.05
2019-03-16T10:34:51.261Z,17.02
2019-03-16T10:37:18.699Z,17.23
2019-03-16T10:39:46.125Z,17.52
2019-03-16T10:42:13.080Z,17.88
2019-03-16T10:44:40.618Z,18.23
2019-03-16T10:47:08.082Z,18.30
2019-03-16T10:49:35.543Z,18.45
2019-03-16T10:52:02.931Z,18.49
2019-03-16T10:54:30.343Z,18.94
2019-03-16T10:56:57.766Z,19.28
2019-03-16T10:59:25.177Z,19.83
2019-03-16T11:01:52.574Z,19.93
2019-03-16T11:04:20.646Z,20.04
2019-03-16T11:06:47.809Z,20.54
2019-03-16T11:09:15.214Z,20.95
2019-03-16T11:11:42.164Z,21.36
2019-03-16T11:14:09.780Z,21.47
2019-03-16T11:16:37.643Z,21.72
2019-03-16T11:19:04.690Z,21.92
2019-03-16T11:21:32.094Z,22.14
2019-03-16T11:24:00.072Z,22.14
2019-03-16T11:26:28.433Z,21.97
2019-03-16T11:29:04.513Z,22.14
2019-03-16T11:31:24.237Z,21.81
2019-03-16T11:33:51.647Z,21.71
2019-03-16T11:36:19.083Z,22.03
2019-03-16T11:38:46.498Z,22.12
2019-03-16T11:41:13.918Z,22.29
2019-03-16T11:43:41.514Z,22.50
2019-03-16T11:46:08.944Z,22.68
2019-03-16T11:48:36.564Z,22.99
2019-03-16T11:51:04.045Z,23.08
2019-03-16T11:53:31.450Z,23.42
2019-03-16T11:55:58.845Z,23.79
2019-03-16T11:58:26.275Z,24.00
2019-03-16T12:00:53.680Z,24.09
2019-03-16T12:03:21.127Z,24.29
2019-03-16T12:05:48.568Z,24.47
2019-03-16T12:08:15.985Z,24.54
2019-03-16T12:10:43.410Z,24.42
2019-03-16T12:13:17.198Z,24.80
2019-03-16T12:15:38.422Z,25.16
2019-03-16T12:18:05.855Z,25.03
2019-03-16T12:20:33.271Z,25.20
2019-03-16T12:23:00.656Z,25.16
2019-03-16T12:25:28.103Z,24.79
2019-03-16T12:27:55.561Z,25.33
2019-03-16T12:30:23.037Z,26.09
2019-03-16T12:32:50.514Z,26.03
2019-03-16T12:35:17.919Z,25.73
2019-03-16T12:37:45.337Z,25.31
2019-03-16T12:40:12.767Z,25.68
2019-03-16T12:42:40.183Z,25.80
2019-03-16T12:45:20.621Z,25.92
2019-03-16T12:47:45.498Z,25.79
2019-03-16T12:50:13.210Z,25.60
2019-03-16T12:52:40.612Z,25.43
2019-03-16T12:55:11.696Z,25.54
2019-03-16T12:57:39.086Z,26.03
2019-03-16T13:00:17.909Z,26.37
2019-03-16T13:02:45.365Z,26.23
2019-03-16T13:05:12.777Z,26.52
2019-03-16T13:07:40.379Z,26.38
2019-03-16T13:10:16.746Z,26.42
2019-03-16T13:12:44.332Z,26.71
2019-03-16T13:15:12.196Z,26.65
2019-03-16T13:17:39.577Z,26.26
2019-03-16T13:20:16.494Z,26.39
2019-03-16T13:22:43.996Z,26.43
2019-03-16T13:25:11.509Z,26.32
2019-03-16T13:27:38.947Z,26.43
2019-03-16T13:30:12.546Z,26.10
2019-03-16T13:32:39.948Z,25.49
2019-03-16T13:35:07.349Z,25.26
2019-03-16T13:37:34.778Z,25.45
2019-03-16T13:40:02.210Z,25.34
2019-03-16T13:42:29.810Z,26.15
2019-03-16T13:44:57.307Z,26.92
2019-03-16T13:47:24.765Z,27.16
2019-03-16T13:49:52.227Z,26.60
2019-03-16T13:52:19.864Z,26.47
2019-03-16T13:54:47.323Z,26.23
2019-03-16T13:57:14.735Z,26.22
2019-03-16T13:59:42.176Z,25.99
2019-03-16T14:02:09.625Z,25.72
2019-03-16T14:04:37.132Z,25.48
2019-03-16T14:07:04.658Z,25.66
2019-03-16T14:09:32.897Z,26.04
2019-03-16T14:12:00.311Z,26.44
2019-03-16T14:14:27.867Z,26.54
2019-03-16T14:16:55.302Z,26.76
2019-03-16T14:19:22.846Z,27.17
2019-03-16T14:21:49.818Z,27.42
2019-03-16T14:24:16.754Z,27.01
2019-03-16T14:26:43.723Z,27.21
2019-03-16T14:29:11.143Z,27.51
2019-03-16T14:31:38.245Z,27.27
2019-03-16T14:34:05.487Z,27.04
2019-03-16T14:36:32.457Z,26.66
2019-03-16T14:38:59.437Z,26.94
2019-03-16T14:41:26.676Z,26.84
2019-03-16T14:43:53.831Z,26.43
2019-03-16T14:46:20.782Z,26.52
2019-03-16T14:48:47.758Z,26.72
2019-03-16T14:51:14.706Z,26.76
2019-03-16T14:53:41.687Z,26.61
2019-03-16T14:56:08.623Z,26.82
2019-03-16T14:58:35.609Z,26.74
2019-03-16T15:01:02.583Z,26.60
2019-03-16T15:03:29.531Z,26.70
2019-03-16T15:05:56.487Z,26.62
2019-03-16T15:08:23.698Z,26.29
2019-03-16T15:10:50.683Z,25.74
2019-03-16T15:13:17.632Z,25.33
2019-03-16T15:15:44.703Z,25.15
2019-03-16T15:18:11.683Z,25.21
2019-03-16T15:20:38.631Z,24.98
2019-03-16T15:23:05.759Z,24.79
2019-03-16T15:25:32.698Z,24.68
2019-03-16T15:27:59.706Z,24.73
2019-03-16T15:30:26.655Z,24.95
2019-03-16T15:32:53.602Z,24.82
2019-03-16T15:35:20.957Z,24.72
2019-03-16T15:37:47.908Z,24.93
2019-03-16T15:40:15.321Z,25.30
2019-03-16T15:42:42.725Z,25.47
2019-03-16T15:45:25.323Z,25.53
2019-03-16T15:47:52.335Z,25.11
2019-03-16T15:50:19.285Z,24.54
2019-03-16T15:52:46.732Z,24.69
2019-03-16T15:55:14.126Z,24.89
2019-03-16T15:57:42.763Z,24.93
2019-03-16T16:00:09.884Z,24.89
2019-03-16T16:02:37.303Z,24.76
2019-03-16T16:05:04.841Z,24.82
2019-03-16T16:07:35.217Z,24.71
2019-03-16T16:09:59.897Z,24.58
2019-03-16T16:12:27.364Z,24.22
2019-03-16T16:14:54.795Z,24.21
2019-03-16T16:17:22.187Z,23.87
2019-03-16T16:19:49.803Z,23.63
2019-03-16T16:22:17.349Z,23.45
2019-03-16T16:24:44.733Z,23.19
2019-03-16T16:27:12.153Z,23.38
2019-03-16T16:29:39.654Z,23.26
2019-03-16T16:32:07.093Z,23.28
2019-03-16T16:34:34.551Z,23.43
2019-03-16T16:37:02.023Z,23.14
2019-03-16T16:39:29.429Z,23.08
2019-03-16T16:41:56.827Z,22.81
2019-03-16T16:44:24.370Z,22.96
2019-03-16T16:46:51.761Z,22.92
2019-03-16T16:49:19.248Z,22.98
2019-03-16T16:51:46.662Z,22.82
2019-03-16T16:54:14.086Z,22.84
2019-03-16T16:56:41.568Z,22.88
2019-03-16T16:59:08.965Z,22.75
2019-03-16T17:01:36.453Z,22.49
2019-03-16T17:04:04.054Z,22.24
2019-03-16T17:06:31.311Z,22.05
2019-03-16T17:08:58.897Z,21.64
2019-03-16T17:11:26.562Z,21.35
2019-03-16T17:13:54.060Z,20.85
2019-03-16T17:16:21.558Z,20.50
2019-03-16T17:18:49.013Z,20.23
2019-03-16T17:21:16.533Z,19.74
2019-03-16T17:23:43.932Z,19.34
2019-03-16T17:26:11.378Z,19.04
2019-03-16T17:28:39.859Z,18.89
2019-03-16T17:31:07.404Z,18.74
2019-03-16T17:33:35.154Z,18.52
2019-03-16T17:36:02.610Z,18.37
2019-03-16T17:38:30.011Z,18.27
2019-03-16T17:40:57.672Z,18.15
2019-03-16T17:43:25.130Z,17.99
2019-03-16T17:45:52.522Z,17.81
2019-03-16T17:48:20.005Z,17.65
2019-03-16T17:50:47.510Z,17.50
2019-03-16T17:53:14.924Z,17.39
2019-03-16T17:55:42.399Z,17.33
2019-03-16T17:58:09.799Z,17.21
2019-03-16T18:00:37.231Z,17.14
2019-03-16T18:03:04.841Z,17.08
2019-03-16T18:05:32.233Z,17.06
2019-03-16T18:07:59.673Z,17.07
2019-03-16T18:10:27.077Z,17.02
2019-03-16T18:12:54.603Z,16.95
2019-03-16T18:15:22.029Z,16.87
2019-03-16T18:17:49.436Z,16.81
2019-03-16T18:20:17.899Z,16.76
2019-03-16T18:22:44.411Z,16.78
2019-03-16T18:25:11.990Z,16.80
2019-03-16T18:27:39.402Z,16.75
2019-03-16T18:30:09.556Z,16.56
2019-03-16T18:32:37.000Z,16.42
2019-03-16T18:35:04.408Z,16.33
2019-03-16T18:37:31.828Z,16.28
2019-03-16T18:39:59.328Z,16.28
2019-03-16T18:42:27.905Z,16.33
2019-03-16T18:44:54.158Z,16.38
2019-03-16T18:47:21.638Z,16.41
2019-03-16T18:49:49.930Z,16.41
2019-03-16T18:52:17.340Z,16.37
2019-03-16T18:54:44.946Z,16.33
2019-03-16T18:57:12.349Z,16.22
2019-03-16T18:59:39.853Z,16.15
2019-03-16T19:02:19.898Z,16.03
2019-03-16T19:04:34.897Z,15.95
2019-03-16T19:07:02.323Z,15.89
2019-03-16T19:09:29.825Z,15.78
2019-03-16T19:11:57.231Z,15.74
2019-03-16T19:14:24.643Z,15.72
2019-03-16T19:16:52.104Z,15.78
2019-03-16T19:19:19.512Z,15.75
2019-03-16T19:21:46.922Z,15.73
2019-03-16T19:24:14.337Z,15.76
2019-03-16T19:26:41.760Z,15.78
2019-03-16T19:29:09.256Z,15.73
2019-03-16T19:31:36.760Z,15.74
2019-03-16T19:34:04.355Z,15.69
2019-03-16T19:36:32.867Z,15.72
2019-03-16T19:39:00.303Z,15.69
2019-03-16T19:41:27.926Z,15.70
2019-03-16T19:43:55.407Z,15.68
2019-03-16T19:46:22.856Z,15.73
2019-03-16T19:48:50.416Z,15.74
2019-03-16T19:51:17.982Z,15.70
2019-03-16T19:53:45.437Z,15.61
2019-03-16T19:56:12.873Z,15.60
2019-03-16T19:58:40.269Z,15.57
2019-03-16T20:01:07.811Z,15.42
2019-03-16T20:03:35.283Z,15.32
2019-03-16T20:06:02.669Z,15.33
2019-03-16T20:08:30.129Z,15.36
2019-03-16T20:11:06.507Z,15.33
2019-03-16T20:13:25.200Z,15.27
2019-03-16T20:15:52.727Z,15.13
2019-03-16T20:18:20.143Z,15.05
2019-03-16T20:20:47.682Z,15.00
2019-03-16T20:23:15.071Z,14.86
2019-03-16T20:25:42.484Z,14.88
2019-03-16T20:28:09.945Z,14.84
2019-03-16T20:30:37.373Z,14.72
2019-03-16T20:33:04.979Z,14.71
2019-03-16T20:35:32.374Z,14.68
2019-03-16T20:37:59.890Z,14.66
2019-03-16T20:40:27.289Z,14.66
2019-03-16T20:42:54.698Z,14.64
2019-03-16T20:45:22.255Z,14.67
2019-03-16T20:47:49.602Z,14.73
2019-03-16T20:50:17.022Z,14.67
2019-03-16T20:52:44.429Z,14.63
2019-03-16T20:55:12.011Z,14.55
2019-03-16T20:57:40.306Z,14.52
2019-03-16T21:00:11.412Z,14.49
2019-03-16T21:02:45.122Z,14.48
2019-03-16T21:05:13.545Z,14.39
2019-03-16T21:07:41.060Z,14.30
2019-03-16T21:10:10.347Z,14.29
2019-03-16T21:12:37.814Z,14.08
2019-03-16T21:15:10.001Z,14.09
2019-03-16T21:17:38.190Z,14.05
2019-03-16T21:20:06.922Z,13.96
2019-03-16T21:22:38.948Z,13.91
2019-03-16T21:25:03.315Z,13.89
2019-03-16T21:27:34.970Z,13.96
2019-03-16T21:30:03.391Z,13.96
2019-03-16T21:32:31.639Z,13.87
2019-03-16T21:34:59.992Z,13.91
2019-03-16T21:37:27.699Z,13.90
2019-03-16T21:39:55.299Z,13.90
2019-03-16T21:42:24.460Z,13.87
2019-03-16T21:45:05.222Z,13.87
2019-03-16T21:47:33.325Z,13.80
2019-03-16T21:50:01.494Z,13.67
2019-03-16T21:52:29.289Z,13.56
2019-03-16T21:54:56.840Z,13.43
2019-03-16T21:57:24.380Z,13.39
2019-03-16T21:59:51.681Z,13.32
2019-03-16T22:02:20.327Z,13.29
2019-03-16T22:04:47.807Z,13.40
2019-03-16T22:07:15.211Z,13.51
2019-03-16T22:09:42.657Z,13.59
2019-03-16T22:12:10.099Z,13.63
2019-03-16T22:14:37.556Z,13.65
2019-03-16T22:17:05.035Z,13.56
2019-03-16T22:19:32.439Z,13.49
2019-03-16T22:21:59.843Z,13.40
2019-03-16T22:24:27.269Z,13.29
2019-03-16T22:26:54.854Z,13.25
2019-03-16T22:29:22.378Z,13.29
2019-03-16T22:31:50.595Z,13.22
2019-03-16T22:34:18.030Z,13.13
2019-03-16T22:36:45.439Z,13.05
2019-03-16T22:39:12.905Z,13.10
2019-03-16T22:41:40.319Z,13.14
2019-03-16T22:44:07.883Z,13.06
2019-03-16T22:46:35.380Z,13.03
2019-03-16T22:49:02.842Z,12.95
2019-03-16T22:51:30.379Z,12.84
2019-03-16T22:53:57.819Z,12.74
2019-03-16T22:56:25.429Z,12.67
2019-03-16T22:58:53.088Z,12.73
2019-03-16T23:01:20.505Z,12.83
2019-03-16T23:03:47.962Z,12.86
2019-03-16T23:06:15.417Z,12.90
2019-03-16T23:08:43.342Z,12.84
2019-03-16T23:11:10.979Z,12.62
2019-03-16T23:13:38.369Z,12.56
2019-03-16T23:16:05.834Z,12.39
2019-03-16T23:18:33.304Z,12.29
2019-03-16T23:21:00.733Z,12.26
2019-03-16T23:23:28.505Z,12.31
2019-03-16T23:25:55.897Z,12.37
2019-03-16T23:28:23.409Z,12.17
2019-03-16T23:30:50.850Z,12.12
2019-03-16T23:33:18.246Z,12.16
2019-03-16T23:35:45.708Z,12.20
2019-03-16T23:38:13.202Z,12.25
2019-03-16T23:40:40.730Z,12.23
2019-03-16T23:43:08.126Z,12.13
2019-03-16T23:45:35.515Z,12.06
2019-03-16T23:48:02.987Z,12.07
2019-03-16T23:50:30.509Z,12.03
2019-03-16T23:52:57.900Z,11.92
2019-03-16T23:55:25.312Z,11.88
2019-03-16T23:57:52.734Z,11.79
